Rhl Felicitas — A8SV2 — position and weather

sailwx.info

Track history (hours):
 
Tides and Currents Weather Stations Pressure Air Temp Water Temp Dewpoint Dewpoint Depression Visibility Wind Speed Wind Dir Waves Ship Positions

Rhl Felicitas

Last reported at 2014-Sep-23 22:15 UTC. Time now 2014-Sep-30 11:53 UTC.
Position N 30°29' W 121°59'.

Length 294 m; draft 11.3 m.

Type: Ship (hazmat cat A). MMSI: 636091781.

Date/timePositionNaut miles runAvg speedWind from/ knotsBaromVisibWave heightAir tempDewpointWater temp
2014-Sep-23 22:15N 30°29' W 121°59'1317.5
2014-Sep-23 21:30N 30°21' W 121°46'7317.2
2014-Sep-23 17:14N 29°35' W 120°41'1217.4
2014-Sep-23 16:33N 29°27' W 120°30'1717.5
2014-Sep-23 15:33N 29°16' W 120°15'1717.4
2014-Sep-23 14:33N 29°05' W 119°59'2117.1
2014-Sep-23 13:19N 28°52' W 119°41'1917.1
2014-Sep-23 12:13N 28°40' W 119°24'15417.0
2014-Sep-23 03:10N 27°03' W 117°08'1417.1
2014-Sep-23 02:22N 26°55' W 116°56'4817.0
2014-Sep-22 23:32N 26°25' W 116°14'  
Track history (hours):
 
Tides and Currents Weather Stations Pressure Air Temp Water Temp Dewpoint Dewpoint Depression Visibility Wind Speed Wind Dir Waves Ship Positions

Rhl Felicitas

Last reported at 2014-Sep-23 22:15 UTC. Time now 2014-Sep-30 11:53 UTC.
Position N 30°29' W 121°59'.

Length 294 m; draft 11.3 m.

Type: Ship (hazmat cat A). MMSI: 636091781.

Date/timePositionNaut miles runAvg speedWind from/ knotsBaromVisibWave heightAir tempDewpointWater temp
2014-Sep-23 22:15N 30°29' W 121°59'1317.5
2014-Sep-23 21:30N 30°21' W 121°46'7317.2
2014-Sep-23 17:14N 29°35' W 120°41'1217.4
2014-Sep-23 16:33N 29°27' W 120°30'1717.5
2014-Sep-23 15:33N 29°16' W 120°15'1717.4
2014-Sep-23 14:33N 29°05' W 119°59'2117.1
2014-Sep-23 13:19N 28°52' W 119°41'1917.1
2014-Sep-23 12:13N 28°40' W 119°24'15417.0
2014-Sep-23 03:10N 27°03' W 117°08'1417.1
2014-Sep-23 02:22N 26°55' W 116°56'4817.0
2014-Sep-22 23:32N 26°25' W 116°14'  

Dump ship's entire track history